Time;durP1;ratioP1;P1;durP2;ratioP2;P2;SDS_P1;SDS_P2;PMS_P1;PMS_P2;Temp;Humidity;BMP_temperature;BMP_pressure;BME280_temperature;BME280_humidity;BME280_pressure;Samples;Min_cycle;Max_cycle;Signal;HPM_P1;HPM_P2
2022/01/29 00:00:13;;;;;;;69.55;9.63;;;;;;;;;;5073697;28;20293;-74
2022/01/29 00:02:40;;;;;;;67.03;9.80;;;;;;;;;;5073996;28;20483;-74
2022/01/29 00:05:07;;;;;;;71.07;10.48;;;;;;;;;;5073764;28;20301;-74
2022/01/29 00:07:35;;;;;;;67.57;9.40;;;;;;;;;;5073585;28;20296;-74
2022/01/29 00:10:04;;;;;;;66.72;9.90;;;;;;;;;;5073619;28;20210;-75
2022/01/29 00:12:32;;;;;;;67.28;9.70;;;;;;;;;;5073060;28;20230;-74
2022/01/29 00:15:00;;;;;;;66.90;9.50;;;;;;;;;;5073791;28;20205;-74
2022/01/29 00:17:27;;;;;;;69.28;10.15;;;;;;;;;;5073463;28;20208;-74
2022/01/29 00:19:54;;;;;;;70.47;10.50;;;;;;;;;;5073282;28;20670;-74
2022/01/29 00:22:21;;;;;;;70.50;10.73;;;;;;;;;;5073288;28;20229;-74
2022/01/29 00:24:48;;;;;;;76.93;10.10;;;;;;;;;;5067152;28;20206;-75
2022/01/29 00:27:15;;;;;;;72.13;10.93;;;;;;;;;;5053449;28;20206;-74
2022/01/29 00:29:44;;;;;;;73.47;11.18;;;;;;;;;;5053054;28;20305;-75
2022/01/29 00:32:12;;;;;;;72.10;11.48;;;;;;;;;;5053159;28;20293;-74
2022/01/29 00:34:39;;;;;;;71.65;11.50;;;;;;;;;;5053018;28;20233;-75
2022/01/29 00:37:07;;;;;;;68.00;10.93;;;;;;;;;;5053180;28;20213;-74
2022/01/29 00:39:34;;;;;;;73.88;11.90;;;;;;;;;;5052881;28;20770;-74
2022/01/29 00:42:01;;;;;;;69.25;10.07;;;;;;;;;;5053330;28;20583;-75
2022/01/29 00:44:28;;;;;;;68.70;10.90;;;;;;;;;;5053092;28;20293;-74
2022/01/29 00:46:57;;;;;;;67.80;9.77;;;;;;;;;;5053165;28;20587;-73
2022/01/29 00:49:24;;;;;;;70.30;9.60;;;;;;;;;;5052311;28;20209;-73
2022/01/29 00:51:51;;;;;;;71.30;10.15;;;;;;;;;;5053095;28;20233;-74
2022/01/29 00:54:18;;;;;;;74.28;11.40;;;;;;;;;;5052268;28;20233;-74
2022/01/29 00:56:45;;;;;;;69.45;10.07;;;;;;;;;;5053005;28;20302;-74
2022/01/29 00:59:13;;;;;;;71.25;11.35;;;;;;;;;;5069830;28;20300;-75
2022/01/29 01:01:40;;;;;;;71.18;11.80;;;;;;;;;;5072639;28;20296;-74
2022/01/29 01:04:08;;;;;;;73.18;12.73;;;;;;;;;;5072611;28;20253;-75
2022/01/29 01:06:35;;;;;;;73.65;11.32;;;;;;;;;;5072380;28;20232;-75
2022/01/29 01:09:03;;;;;;;68.97;9.98;;;;;;;;;;5072367;28;20639;-75
2022/01/29 01:11:30;;;;;;;71.55;10.35;;;;;;;;;;5072819;28;20301;-74
2022/01/29 01:13:57;;;;;;;72.85;11.02;;;;;;;;;;5071961;28;20325;-75
2022/01/29 01:16:24;;;;;;;68.75;10.25;;;;;;;;;;5072652;28;20294;-74
2022/01/29 01:18:51;;;;;;;70.75;10.32;;;;;;;;;;5071903;28;20292;-74
2022/01/29 01:21:20;;;;;;;68.78;10.32;;;;;;;;;;5072173;28;20762;-75
2022/01/29 01:23:47;;;;;;;69.47;10.10;;;;;;;;;;5072275;28;20304;-74
2022/01/29 01:26:14;;;;;;;73.25;11.05;;;;;;;;;;5072067;28;20241;-74
2022/01/29 01:28:41;;;;;;;70.15;11.07;;;;;;;;;;5071901;28;20288;-74
2022/01/29 01:31:08;;;;;;;74.25;10.95;;;;;;;;;;5070216;28;20297;-73
2022/01/29 01:33:36;;;;;;;69.00;10.13;;;;;;;;;;5071810;28;20273;-74
2022/01/29 01:36:05;;;;;;;73.60;11.73;;;;;;;;;;5071637;28;20223;-74
2022/01/29 01:38:40;;;;;;;68.38;10.35;;;;;;;;;;5072047;28;20216;-74
2022/01/29 01:41:13;;;;;;;68.57;9.15;;;;;;;;;;5072200;28;20209;-74
2022/01/29 01:43:40;;;;;;;67.95;11.05;;;;;;;;;;5071989;28;20630;-74
2022/01/29 01:46:07;;;;;;;71.88;10.95;;;;;;;;;;5071865;28;20566;-73
2022/01/29 01:48:34;;;;;;;72.75;10.82;;;;;;;;;;5071759;28;20711;-74
2022/01/29 01:51:02;;;;;;;71.10;10.65;;;;;;;;;;5071993;28;20693;-74
2022/01/29 01:53:29;;;;;;;79.95;11.02;;;;;;;;;;5071746;28;20328;-74
2022/01/29 01:55:57;;;;;;;72.53;11.52;;;;;;;;;;5071918;28;20204;-74
2022/01/29 01:58:25;;;;;;;72.45;10.80;;;;;;;;;;5071837;28;20300;-74
2022/01/29 02:00:52;;;;;;;70.50;11.40;;;;;;;;;;5072312;28;20296;-74
2022/01/29 02:03:19;;;;;;;68.65;10.93;;;;;;;;;;5066073;28;20218;-71
2022/01/29 02:05:46;;;;;;;72.30;10.35;;;;;;;;;;5051927;28;20216;-74
2022/01/29 02:08:15;;;;;;;69.75;10.38;;;;;;;;;;5051559;28;20722;-73
2022/01/29 02:10:45;;;;;;;72.40;10.48;;;;;;;;;;5051659;28;20212;-74
2022/01/29 02:13:13;;;;;;;68.72;10.57;;;;;;;;;;5050776;28;20642;-74
2022/01/29 02:15:40;;;;;;;70.93;10.68;;;;;;;;;;5050976;28;20698;-74
2022/01/29 02:18:14;;;;;;;71.03;10.80;;;;;;;;;;5051595;28;20559;-74
2022/01/29 02:20:44;;;;;;;73.50;10.55;;;;;;;;;;5051504;28;20203;-74
2022/01/29 02:23:13;;;;;;;69.45;9.50;;;;;;;;;;5051648;28;20696;-75
2022/01/29 02:25:42;;;;;;;68.85;10.68;;;;;;;;;;5051527;28;20210;-74
2022/01/29 02:28:10;;;;;;;68.35;9.52;;;;;;;;;;5051105;28;20202;-75
2022/01/29 02:30:39;;;;;;;69.68;10.10;;;;;;;;;;5051473;28;20207;-74
2022/01/29 02:33:10;;;;;;;67.75;9.82;;;;;;;;;;5051437;28;20261;-73
2022/01/29 02:35:39;;;;;;;69.07;10.50;;;;;;;;;;5051274;28;20218;-74
2022/01/29 02:38:06;;;;;;;73.88;10.48;;;;;;;;;;5050016;28;20210;-74
2022/01/29 02:40:41;;;;;;;71.28;10.40;;;;;;;;;;5058209;28;20685;-74
2022/01/29 02:43:13;;;;;;;67.50;9.65;;;;;;;;;;5071335;28;20596;-74
2022/01/29 02:45:41;;;;;;;69.22;10.23;;;;;;;;;;5071359;28;20205;-74
2022/01/29 02:48:08;;;;;;;68.03;10.38;;;;;;;;;;5070788;28;20688;-74
2022/01/29 02:50:35;;;;;;;68.28;10.25;;;;;;;;;;5071660;28;20670;-74
2022/01/29 02:53:02;;;;;;;68.97;10.43;;;;;;;;;;5071190;28;20317;-74
2022/01/29 02:55:30;;;;;;;71.78;10.63;;;;;;;;;;5071935;28;20312;-74
2022/01/29 02:57:58;;;;;;;74.47;11.57;;;;;;;;;;5071685;28;20224;-73
2022/01/29 03:00:26;;;;;;;67.22;9.30;;;;;;;;;;5071103;28;20578;-73
2022/01/29 03:02:53;;;;;;;68.07;10.48;;;;;;;;;;5071191;28;20774;-73
2022/01/29 03:05:20;;;;;;;69.22;10.75;;;;;;;;;;5071433;28;20643;-74
2022/01/29 03:07:47;;;;;;;73.40;11.95;;;;;;;;;;5070787;28;20263;-75
2022/01/29 03:10:15;;;;;;;69.55;10.52;;;;;;;;;;5069265;28;20293;-74
2022/01/29 03:12:42;;;;;;;73.50;10.73;;;;;;;;;;5071146;28;20217;-74
2022/01/29 03:15:12;;;;;;;67.30;10.85;;;;;;;;;;5070794;28;20736;-74
2022/01/29 03:17:39;;;;;;;72.15;9.98;;;;;;;;;;5070635;28;20271;-75
2022/01/29 03:20:06;;;;;;;73.25;10.85;;;;;;;;;;5071423;28;20205;-74
2022/01/29 03:22:34;;;;;;;70.53;11.40;;;;;;;;;;5070963;28;20268;-74
2022/01/29 03:25:01;;;;;;;68.85;10.32;;;;;;;;;;5071834;28;20347;-74
2022/01/29 03:27:28;;;;;;;70.32;10.75;;;;;;;;;;5074181;28;20210;-74
2022/01/29 03:29:55;;;;;;;68.60;9.65;;;;;;;;;;5074923;28;20233;-74
2022/01/29 03:32:24;;;;;;;66.85;9.80;;;;;;;;;;5074465;28;20804;-74
2022/01/29 03:34:51;;;;;;;69.88;9.68;;;;;;;;;;5074245;28;20221;-74
2022/01/29 03:37:18;;;;;;;73.18;10.85;;;;;;;;;;5074130;28;20658;-74
2022/01/29 03:39:46;;;;;;;70.03;10.65;;;;;;;;;;5074187;28;20240;-74
2022/01/29 03:42:14;;;;;;;67.78;9.80;;;;;;;;;;5071878;28;20209;-74
2022/01/29 03:44:42;;;;;;;73.30;10.23;;;;;;;;;;5074576;28;20201;-74
2022/01/29 03:47:09;;;;;;;71.10;10.85;;;;;;;;;;5074308;28;20297;-74
2022/01/29 03:49:37;;;;;;;72.63;10.48;;;;;;;;;;5074360;28;20308;-73
2022/01/29 03:52:05;;;;;;;68.88;10.13;;;;;;;;;;5073868;28;20297;-74
2022/01/29 03:54:32;;;;;;;71.05;11.00;;;;;;;;;;5073899;28;20317;-74
2022/01/29 03:56:59;;;;;;;69.65;10.57;;;;;;;;;;5073918;28;20237;-75
2022/01/29 03:59:26;;;;;;;68.07;9.73;;;;;;;;;;5073739;28;20292;-73
2022/01/29 04:01:54;;;;;;;75.97;11.85;;;;;;;;;;5074102;28;20233;-75
2022/01/29 04:04:21;;;;;;;68.97;10.10;;;;;;;;;;5073950;28;20221;-74
2022/01/29 04:06:50;;;;;;;70.85;11.63;;;;;;;;;;5073961;28;20677;-74
2022/01/29 04:09:19;;;;;;;69.68;11.35;;;;;;;;;;5073679;28;20292;-72
2022/01/29 04:11:46;;;;;;;73.80;13.00;;;;;;;;;;5074103;28;20214;-74
2022/01/29 04:14:16;;;;;;;76.07;11.23;;;;;;;;;;5072095;28;20642;-73
2022/01/29 04:16:44;;;;;;;72.93;12.05;;;;;;;;;;5073826;28;20205;-73
2022/01/29 04:19:11;;;;;;;73.47;12.68;;;;;;;;;;5073513;28;20206;-72
2022/01/29 04:21:38;;;;;;;72.57;12.10;;;;;;;;;;5073820;28;20301;-73
2022/01/29 04:24:07;;;;;;;69.07;10.50;;;;;;;;;;5073205;28;20217;-73
2022/01/29 04:26:35;;;;;;;70.63;10.13;;;;;;;;;;5073799;28;20214;-73
2022/01/29 04:29:05;;;;;;;70.18;10.68;;;;;;;;;;5073383;28;20201;-73
2022/01/29 04:31:39;;;;;;;73.00;12.05;;;;;;;;;;5073544;28;20629;-73
2022/01/29 04:34:06;;;;;;;71.63;11.00;;;;;;;;;;5073634;28;20222;-73
2022/01/29 04:36:33;;;;;;;72.90;12.77;;;;;;;;;;5073146;28;20650;-74
2022/01/29 04:39:00;;;;;;;69.88;10.93;;;;;;;;;;5073287;28;20212;-73
2022/01/29 04:41:29;;;;;;;72.25;10.55;;;;;;;;;;5073483;28;20233;-73
2022/01/29 04:43:56;;;;;;;73.07;12.77;;;;;;;;;;5073007;28;20264;-74
2022/01/29 04:46:23;;;;;;;76.45;12.63;;;;;;;;;;5073238;28;20296;-73
2022/01/29 04:48:50;;;;;;;74.10;13.07;;;;;;;;;;5072994;28;20209;-74
2022/01/29 04:51:17;;;;;;;70.38;12.23;;;;;;;;;;5074045;28;20296;-73
2022/01/29 04:53:44;;;;;;;72.75;12.25;;;;;;;;;;5073320;28;20661;-73
2022/01/29 04:56:11;;;;;;;68.78;11.73;;;;;;;;;;5073056;28;20225;-73
2022/01/29 04:58:40;;;;;;;75.22;12.32;;;;;;;;;;5072991;28;20206;-73
2022/01/29 05:01:07;;;;;;;73.53;11.63;;;;;;;;;;5073107;28;20205;-74
2022/01/29 05:03:34;;;;;;;77.32;12.80;;;;;;;;;;5072628;28;20325;-73
2022/01/29 05:06:03;;;;;;;75.70;12.68;;;;;;;;;;5073006;28;20204;-74
2022/01/29 05:08:31;;;;;;;70.95;11.88;;;;;;;;;;5072630;28;20583;-73
2022/01/29 05:10:58;;;;;;;72.57;10.80;;;;;;;;;;5072715;28;20327;-73
2022/01/29 05:13:28;;;;;;;71.60;13.35;;;;;;;;;;5072634;28;20313;-73
2022/01/29 05:26:55;;;;;;;71.20;10.93;;;;;;;;;;5072475;28;20289;-73
2022/01/29 05:29:23;;;;;;;67.68;10.70;;;;;;;;;;5072391;28;20300;-73
2022/01/29 05:31:52;;;;;;;68.20;11.20;;;;;;;;;;5072324;28;20210;-73
2022/01/29 05:34:19;;;;;;;72.50;11.15;;;;;;;;;;5072092;28;20709;-73
2022/01/29 05:36:46;;;;;;;76.40;11.65;;;;;;;;;;5072144;28;20213;-72
2022/01/29 05:39:14;;;;;;;81.05;12.50;;;;;;;;;;5072244;28;20205;-73
2022/01/29 05:41:41;;;;;;;73.28;11.55;;;;;;;;;;5072241;28;20205;-73
2022/01/29 05:44:09;;;;;;;77.82;13.23;;;;;;;;;;5072109;28;20227;-73
2022/01/29 05:46:36;;;;;;;70.13;11.32;;;;;;;;;;5072730;28;20288;-73
2022/01/29 05:49:04;;;;;;;78.53;14.73;;;;;;;;;;5071800;28;20288;-73
2022/01/29 05:51:31;;;;;;;69.25;11.52;;;;;;;;;;5072057;28;20244;-73
2022/01/29 05:53:59;;;;;;;84.55;13.52;;;;;;;;;;5072104;28;20316;-73
2022/01/29 05:56:26;;;;;;;74.90;14.10;;;;;;;;;;5072436;28;20232;-73
2022/01/29 05:58:53;;;;;;;75.90;13.02;;;;;;;;;;5071652;28;20296;-75
2022/01/29 06:01:20;;;;;;;82.50;13.82;;;;;;;;;;5072108;28;20298;-73
2022/01/29 06:03:48;;;;;;;74.47;14.05;;;;;;;;;;5072616;28;20253;-73
2022/01/29 06:06:17;;;;;;;78.80;15.40;;;;;;;;;;5073725;28;20209;-73
2022/01/29 06:08:44;;;;;;;85.20;15.55;;;;;;;;;;5073461;28;20244;-72
2022/01/29 06:11:11;;;;;;;80.97;15.07;;;;;;;;;;5073377;28;20293;-73
2022/01/29 06:13:38;;;;;;;76.80;14.57;;;;;;;;;;5073111;28;20225;-73
2022/01/29 06:16:06;;;;;;;79.78;13.98;;;;;;;;;;5072312;28;20608;-73
2022/01/29 06:18:33;;;;;;;76.93;15.18;;;;;;;;;;5071468;28;20292;-73
2022/01/29 06:21:04;;;;;;;78.20;15.38;;;;;;;;;;5072032;28;20202;-72
2022/01/29 06:23:34;;;;;;;80.18;15.40;;;;;;;;;;5071573;28;20752;-73
2022/01/29 06:26:02;;;;;;;80.47;15.23;;;;;;;;;;5071773;28;20232;-73
2022/01/29 06:28:30;;;;;;;78.75;15.70;;;;;;;;;;5071548;28;20263;-71
2022/01/29 06:30:57;;;;;;;78.95;14.88;;;;;;;;;;5071532;28;20288;-71
2022/01/29 06:33:24;;;;;;;78.82;14.20;;;;;;;;;;5071732;28;20225;-71
2022/01/29 06:35:51;;;;;;;74.32;14.38;;;;;;;;;;5071587;28;20600;-72
2022/01/29 06:38:19;;;;;;;79.25;14.35;;;;;;;;;;5071295;28;20208;-72
2022/01/29 06:40:47;;;;;;;75.72;14.43;;;;;;;;;;5071617;28;20241;-72
2022/01/29 06:43:14;;;;;;;75.95;14.60;;;;;;;;;;5071564;28;20221;-72
2022/01/29 06:45:44;;;;;;;76.72;12.73;;;;;;;;;;5072389;28;20640;-72
2022/01/29 06:48:11;;;;;;;72.60;11.55;;;;;;;;;;5071379;28;20213;-72
2022/01/29 06:50:39;;;;;;;83.90;14.57;;;;;;;;;;5071685;28;20209;-73
2022/01/29 06:53:06;;;;;;;79.63;16.40;;;;;;;;;;5071450;28;20236;-73
2022/01/29 06:55:33;;;;;;;79.72;15.95;;;;;;;;;;5071358;28;20313;-73
2022/01/29 06:58:02;;;;;;;82.10;14.18;;;;;;;;;;5071195;28;20212;-73
2022/01/29 07:00:29;;;;;;;80.93;15.50;;;;;;;;;;5072816;28;20210;-73
2022/01/29 07:02:56;;;;;;;76.45;13.60;;;;;;;;;;5075163;28;20230;-73
2022/01/29 07:05:23;;;;;;;79.18;15.43;;;;;;;;;;5075068;28;20201;-73
2022/01/29 07:07:50;;;;;;;75.20;13.20;;;;;;;;;;5074712;28;20301;-73
2022/01/29 07:10:18;;;;;;;76.30;14.23;;;;;;;;;;5074937;28;20209;-73
2022/01/29 07:12:45;;;;;;;77.43;15.07;;;;;;;;;;5074688;28;20264;-73
2022/01/29 07:15:14;;;;;;;84.82;16.75;;;;;;;;;;5075223;28;20312;-73
2022/01/29 07:17:41;;;;;;;76.85;13.75;;;;;;;;;;5074795;28;20588;-73
2022/01/29 07:20:09;;;;;;;78.03;12.93;;;;;;;;;;5074881;28;20296;-73
2022/01/29 07:22:36;;;;;;;78.28;15.00;;;;;;;;;;5074642;28;20247;-73
2022/01/29 07:25:03;;;;;;;78.90;15.00;;;;;;;;;;5074825;28;20229;-73
2022/01/29 07:27:30;;;;;;;77.03;14.18;;;;;;;;;;5074973;28;20237;-73
2022/01/29 07:29:58;;;;;;;76.15;12.77;;;;;;;;;;5074914;28;20248;-73
2022/01/29 07:32:26;;;;;;;75.13;13.70;;;;;;;;;;5074945;28;20651;-73
2022/01/29 07:34:53;;;;;;;75.25;13.35;;;;;;;;;;5074379;28;20297;-73
2022/01/29 07:37:20;;;;;;;74.55;14.02;;;;;;;;;;5074374;28;20645;-73
2022/01/29 07:39:48;;;;;;;72.82;13.38;;;;;;;;;;5074373;28;20225;-73
2022/01/29 07:42:15;;;;;;;74.35;12.98;;;;;;;;;;5074523;28;20636;-73
2022/01/29 07:44:42;;;;;;;73.45;13.10;;;;;;;;;;5074473;28;20202;-73
2022/01/29 07:47:09;;;;;;;74.68;13.13;;;;;;;;;;5074415;28;20561;-73
2022/01/29 07:49:38;;;;;;;74.10;13.82;;;;;;;;;;5074361;28;20750;-73
2022/01/29 07:52:05;;;;;;;78.57;15.85;;;;;;;;;;5074328;28;20212;-74
2022/01/29 07:54:32;;;;;;;75.70;12.65;;;;;;;;;;5074236;28;20768;-73
2022/01/29 07:57:00;;;;;;;73.57;13.23;;;;;;;;;;5074614;28;20307;-73
2022/01/29 07:59:27;;;;;;;80.20;13.73;;;;;;;;;;5074076;28;20237;-73
2022/01/29 08:01:54;;;;;;;74.50;13.55;;;;;;;;;;5074041;28;20205;-73
2022/01/29 08:04:24;;;;;;;73.47;12.75;;;;;;;;;;5074002;28;20312;-73
2022/01/29 08:06:52;;;;;;;74.00;12.30;;;;;;;;;;5073970;28;20210;-73
2022/01/29 08:09:19;;;;;;;78.88;14.80;;;;;;;;;;5073705;28;20301;-73
2022/01/29 08:11:47;;;;;;;78.88;13.73;;;;;;;;;;5072891;28;20763;-73
2022/01/29 08:14:15;;;;;;;73.55;13.88;;;;;;;;;;5073889;28;20236;-73
2022/01/29 08:16:42;;;;;;;79.75;13.60;;;;;;;;;;5073884;28;20605;-73
2022/01/29 08:19:09;;;;;;;82.45;14.60;;;;;;;;;;5073419;28;20292;-73
2022/01/29 08:21:38;;;;;;;71.30;9.93;;;;;;;;;;5073936;28;20202;-73
2022/01/29 08:24:07;;;;;;;70.85;11.02;;;;;;;;;;5073620;28;20229;-73
2022/01/29 08:26:34;;;;;;;69.60;10.70;;;;;;;;;;5073815;28;20201;-73
2022/01/29 08:29:01;;;;;;;70.43;11.85;;;;;;;;;;5073479;28;20202;-73
2022/01/29 08:31:28;;;;;;;67.60;9.38;;;;;;;;;;5074020;28;20729;-73
2022/01/29 08:33:56;;;;;;;68.57;9.35;;;;;;;;;;5073223;28;20232;-74
2022/01/29 08:36:23;;;;;;;67.30;9.00;;;;;;;;;;5074077;28;20222;-73
2022/01/29 08:38:50;;;;;;;67.30;8.93;;;;;;;;;;5073538;28;20300;-73
2022/01/29 08:41:18;;;;;;;62.58;7.15;;;;;;;;;;5073376;28;20300;-73
2022/01/29 08:43:46;;;;;;;64.57;5.50;;;;;;;;;;5073167;28;20316;-73
2022/01/29 08:46:13;;;;;;;62.28;5.72;;;;;;;;;;5073580;28;20226;-74
2022/01/29 08:48:40;;;;;;;60.95;5.45;;;;;;;;;;5073088;28;20241;-73
2022/01/29 08:51:07;;;;;;;63.03;5.78;;;;;;;;;;5073316;28;20237;-73
2022/01/29 08:53:35;;;;;;;61.50;5.38;;;;;;;;;;5072958;28;20236;-73
2022/01/29 08:56:03;;;;;;;63.10;5.40;;;;;;;;;;5073016;28;20239;-71
2022/01/29 08:58:32;;;;;;;61.10;5.55;;;;;;;;;;5072816;28;20275;-71
2022/01/29 09:00:59;;;;;;;65.00;6.43;;;;;;;;;;5072917;28;20299;-71
2022/01/29 09:03:26;;;;;;;61.85;5.28;;;;;;;;;;5072983;28;20316;-71
2022/01/29 09:05:53;;;;;;;62.03;6.07;;;;;;;;;;5073126;28;20292;-71
2022/01/29 09:08:21;;;;;;;62.10;4.95;;;;;;;;;;5072464;28;20232;-72
2022/01/29 09:10:48;;;;;;;62.05;4.72;;;;;;;;;;5072594;28;20689;-72
2022/01/29 09:13:15;;;;;;;62.55;5.68;;;;;;;;;;5072466;28;20229;-71
2022/01/29 09:15:44;;;;;;;60.22;4.47;;;;;;;;;;5072462;28;20686;-72
2022/01/29 09:18:11;;;;;;;62.30;5.43;;;;;;;;;;5072516;28;20202;-72
2022/01/29 09:20:38;;;;;;;60.55;5.70;;;;;;;;;;5072530;28;20248;-72
2022/01/29 09:23:06;;;;;;;61.70;5.45;;;;;;;;;;5072114;28;20312;-72
2022/01/29 09:25:35;;;;;;;62.90;4.60;;;;;;;;;;5072679;28;20205;-72
2022/01/29 09:28:03;;;;;;;62.30;5.13;;;;;;;;;;5072131;28;20630;-72
2022/01/29 09:30:30;;;;;;;64.30;6.50;;;;;;;;;;5072542;28;20248;-72
2022/01/29 09:32:58;;;;;;;62.20;5.93;;;;;;;;;;5072377;28;20268;-72
2022/01/29 09:35:26;;;;;;;61.35;5.65;;;;;;;;;;5072150;28;20220;-72
2022/01/29 09:37:53;;;;;;;65.38;5.47;;;;;;;;;;5072256;28;20212;-72
2022/01/29 09:40:20;;;;;;;62.55;5.20;;;;;;;;;;5072142;28;20686;-72
2022/01/29 09:42:50;;;;;;;60.90;5.10;;;;;;;;;;5072443;28;20225;-72
2022/01/29 09:45:18;;;;;;;61.15;5.07;;;;;;;;;;5072389;28;20209;-72
2022/01/29 09:47:47;;;;;;;63.60;6.50;;;;;;;;;;5072107;28;20292;-73
2022/01/29 09:50:16;;;;;;;61.90;4.88;;;;;;;;;;5072334;28;20693;-72
2022/01/29 09:52:44;;;;;;;60.92;4.90;;;;;;;;;;5072420;28;20236;-72
2022/01/29 09:55:11;;;;;;;60.55;5.30;;;;;;;;;;5072038;28;20702;-72
2022/01/29 09:57:39;;;;;;;62.15;5.15;;;;;;;;;;5071621;28;20284;-72
2022/01/29 10:00:09;;;;;;;62.30;5.25;;;;;;;;;;5072283;28;20210;-72
2022/01/29 10:02:37;;;;;;;62.20;4.95;;;;;;;;;;5072096;28;20234;-72
2022/01/29 10:05:04;;;;;;;62.30;5.68;;;;;;;;;;5072194;28;20358;-72
2022/01/29 10:07:33;;;;;;;63.00;5.57;;;;;;;;;;5071537;28;20204;-72
2022/01/29 10:10:03;;;;;;;61.45;5.72;;;;;;;;;;5072321;28;20225;-72
2022/01/29 10:12:31;;;;;;;62.40;5.35;;;;;;;;;;5072049;28;20312;-72
2022/01/29 10:14:59;;;;;;;61.45;5.93;;;;;;;;;;5072169;28;20299;-72
2022/01/29 10:17:46;;;;;;;65.60;6.35;;;;;;;;;;5071612;28;20235;-72
2022/01/29 10:20:18;;;;;;;65.55;5.30;;;;;;;;;;5072122;28;20324;-72
2022/01/29 10:22:47;;;;;;;62.63;5.30;;;;;;;;;;5072142;28;20225;-72
2022/01/29 10:25:16;;;;;;;62.05;5.95;;;;;;;;;;5071799;28;20750;-72
2022/01/29 10:28:06;;;;;;;63.97;6.70;;;;;;;;;;5071434;28;20375;-72
2022/01/29 10:30:34;;;;;;;62.63;4.93;;;;;;;;;;5071746;28;20678;-72
2022/01/29 10:33:16;;;;;;;61.47;5.30;;;;;;;;;;5072322;28;20225;-73
2022/01/29 10:35:44;;;;;;;62.70;5.77;;;;;;;;;;5073853;28;20543;-73
2022/01/29 10:38:12;;;;;;;61.42;5.22;;;;;;;;;;5075926;28;20797;-73
2022/01/29 10:40:39;;;;;;;60.77;4.70;;;;;;;;;;5075812;28;20716;-73
2022/01/29 10:43:07;;;;;;;62.17;5.00;;;;;;;;;;5075553;28;20456;-73
2022/01/29 10:45:34;;;;;;;60.60;4.67;;;;;;;;;;5076095;28;20897;-73
2022/01/29 10:48:03;;;;;;;60.00;4.50;;;;;;;;;;5075307;28;20483;-73
2022/01/29 10:50:30;;;;;;;61.30;4.77;;;;;;;;;;5075427;28;20451;-73
2022/01/29 10:52:57;;;;;;;61.77;5.40;;;;;;;;;;5075248;28;20502;-73
2022/01/29 10:55:26;;;;;;;62.57;5.90;;;;;;;;;;5075276;28;20452;-73
2022/01/29 10:57:53;;;;;;;60.67;5.03;;;;;;;;;;5075305;28;20483;-73
2022/01/29 11:00:22;;;;;;;62.40;5.37;;;;;;;;;;5075481;28;20469;-73
2022/01/29 11:02:49;;;;;;;61.57;4.90;;;;;;;;;;5079925;28;20468;-73
2022/01/29 11:05:17;;;;;;;59.97;4.87;;;;;;;;;;5087328;28;20451;-72
2022/01/29 11:07:50;;;;;;;61.47;4.70;;;;;;;;;;5089344;28;20439;-72
2022/01/29 11:10:17;;;;;;;61.60;4.80;;;;;;;;;;5090754;28;20448;-73
2022/01/29 11:12:46;;;;;;;61.70;4.97;;;;;;;;;;5092723;28;20519;-73
2022/01/29 11:15:16;;;;;;;61.03;5.00;;;;;;;;;;5093150;28;20451;-73
2022/01/29 11:17:44;;;;;;;61.80;5.23;;;;;;;;;;5092834;28;20551;-73
2022/01/29 11:20:11;;;;;;;60.33;4.47;;;;;;;;;;5092722;28;20444;-73
2022/01/29 11:22:39;;;;;;;61.77;3.97;;;;;;;;;;5092534;28;20464;-73
2022/01/29 11:25:08;;;;;;;59.50;4.10;;;;;;;;;;5093536;28;20476;-73
2022/01/29 11:27:37;;;;;;;60.20;4.00;;;;;;;;;;5092755;28;20531;-72
2022/01/29 11:30:12;;;;;;;60.77;4.80;;;;;;;;;;5092977;28;20439;-72
2022/01/29 11:32:42;;;;;;;59.87;4.37;;;;;;;;;;5091953;28;20535;-73
2022/01/29 11:35:13;;;;;;;59.30;4.00;;;;;;;;;;5090777;28;20454;-72
2022/01/29 11:37:43;;;;;;;58.97;3.87;;;;;;;;;;5090404;28;20488;-72
2022/01/29 11:40:14;;;;;;;60.27;3.90;;;;;;;;;;5090823;28;20499;-73
2022/01/29 11:42:52;;;;;;;59.93;3.80;;;;;;;;;;5091513;28;20479;-73
2022/01/29 11:45:38;;;;;;;59.27;3.97;;;;;;;;;;5090491;28;20451;-73
2022/01/29 11:48:06;;;;;;;63.07;4.07;;;;;;;;;;5091081;28;20471;-73
2022/01/29 11:50:44;;;;;;;60.23;3.90;;;;;;;;;;5091097;28;20456;-73
2022/01/29 11:53:11;;;;;;;62.20;4.23;;;;;;;;;;5083504;28;20474;-73
2022/01/29 11:55:40;;;;;;;68.00;4.00;;;;;;;;;;5091780;28;20482;-73
2022/01/29 11:58:17;;;;;;;59.30;3.90;;;;;;;;;;5091770;28;20480;-73
2022/01/29 12:00:46;;;;;;;59.17;3.80;;;;;;;;;;5090840;28;20478;-73
2022/01/29 12:03:28;;;;;;;60.57;4.10;;;;;;;;;;5088845;28;20289;-73
2022/01/29 12:06:13;;;;;;;59.87;3.67;;;;;;;;;;5089601;28;20458;-73
2022/01/29 12:09:05;;;;;;;59.33;4.00;;;;;;;;;;5090079;28;20448;-73
2022/01/29 12:11:32;;;;;;;59.50;3.90;;;;;;;;;;5090528;28;20452;-73
2022/01/29 12:14:19;;;;;;;59.57;3.70;;;;;;;;;;5090350;28;20237;-73
2022/01/29 12:16:49;;;;;;;60.80;4.10;;;;;;;;;;5089865;28;20490;-73
2022/01/29 12:19:31;;;;;;;58.72;3.67;;;;;;;;;;5089585;28;20448;-73
2022/01/29 12:21:58;;;;;;;59.47;3.30;;;;;;;;;;5090130;28;20700;-73
2022/01/29 12:24:25;;;;;;;59.57;3.73;;;;;;;;;;5089419;28;20532;-73
2022/01/29 12:26:55;;;;;;;60.27;4.17;;;;;;;;;;5084708;28;20435;-72
2022/01/29 12:29:23;;;;;;;61.40;3.50;;;;;;;;;;5087854;28;20966;-72
2022/01/29 12:31:52;;;;;;;59.58;3.67;;;;;;;;;;5087076;28;20444;-73
2022/01/29 12:34:21;;;;;;;59.97;4.13;;;;;;;;;;5087567;28;20226;-73
2022/01/29 12:36:48;;;;;;;59.10;3.90;;;;;;;;;;5085864;28;20488;-73
2022/01/29 12:39:21;;;;;;;59.30;3.40;;;;;;;;;;5088129;28;20454;-74
2022/01/29 12:42:03;;;;;;;58.90;3.37;;;;;;;;;;5090486;28;20232;-72
2022/01/29 12:44:30;;;;;;;59.10;3.70;;;;;;;;;;5081026;28;20436;-73
2022/01/29 12:46:59;;;;;;;62.08;3.80;;;;;;;;;;5076090;28;20454;-72
2022/01/29 12:49:26;;;;;;;59.03;3.70;;;;;;;;;;5074910;28;20208;-74
2022/01/29 12:51:54;;;;;;;58.57;3.30;;;;;;;;;;5073987;28;20447;-72
2022/01/29 12:54:21;;;;;;;59.07;3.67;;;;;;;;;;5073263;28;20463;-73
2022/01/29 12:56:49;;;;;;;59.40;3.47;;;;;;;;;;5073811;28;20569;-72
2022/01/29 12:59:17;;;;;;;60.83;3.50;;;;;;;;;;5072934;28;20444;-74
2022/01/29 13:01:45;;;;;;;59.73;3.43;;;;;;;;;;5073448;28;20452;-74
2022/01/29 13:04:16;;;;;;;58.57;3.37;;;;;;;;;;5073353;28;20475;-75
2022/01/29 13:06:43;;;;;;;61.60;3.60;;;;;;;;;;5073085;28;20516;-72
2022/01/29 13:09:14;;;;;;;58.90;3.60;;;;;;;;;;5073136;28;20454;-74
2022/01/29 13:11:41;;;;;;;60.40;3.80;;;;;;;;;;5073185;28;20456;-72
2022/01/29 13:14:12;;;;;;;60.27;3.70;;;;;;;;;;5073087;28;20580;-72
2022/01/29 13:16:40;;;;;;;59.87;3.30;;;;;;;;;;5072732;28;20535;-73
2022/01/29 13:19:07;;;;;;;58.83;3.17;;;;;;;;;;5072591;28;20562;-73
2022/01/29 13:21:36;;;;;;;59.07;3.40;;;;;;;;;;5073538;28;20949;-73
2022/01/29 13:24:23;;;;;;;58.30;3.33;;;;;;;;;;5072784;28;20563;-73
2022/01/29 13:27:29;;;;;;;59.30;3.63;;;;;;;;;;5072880;28;20952;-73
2022/01/29 13:30:02;;;;;;;59.20;3.20;;;;;;;;;;5067611;28;20828;-73
2022/01/29 13:32:29;;;;;;;60.90;3.77;;;;;;;;;;5072455;28;20476;-73
2022/01/29 13:34:57;;;;;;;60.15;3.80;;;;;;;;;;5072301;28;20460;-73
2022/01/29 13:37:29;;;;;;;58.57;3.23;;;;;;;;;;5072321;28;20777;-72
2022/01/29 13:39:56;;;;;;;59.28;3.55;;;;;;;;;;5072428;28;20483;-72
2022/01/29 13:42:26;;;;;;;60.25;3.42;;;;;;;;;;5072046;28;20243;-72
2022/01/29 13:45:05;;;;;;;59.17;3.83;;;;;;;;;;5072786;28;20209;-72
2022/01/29 13:47:33;;;;;;;59.85;3.60;;;;;;;;;;5071952;28;20447;-72
2022/01/29 13:50:00;;;;;;;60.25;3.50;;;;;;;;;;5072328;28;20219;-72
2022/01/29 13:52:27;;;;;;;61.65;4.00;;;;;;;;;;5072703;28;20221;-72
2022/01/29 13:55:08;;;;;;;60.45;4.30;;;;;;;;;;5072217;28;20704;-73
2022/01/29 13:57:36;;;;;;;60.22;4.30;;;;;;;;;;5071698;28;20316;-73
2022/01/29 14:00:05;;;;;;;60.33;3.50;;;;;;;;;;5072361;28;20205;-72
2022/01/29 14:02:48;;;;;;;60.22;4.22;;;;;;;;;;5073047;28;20613;-73
2022/01/29 14:05:19;;;;;;;60.03;4.23;;;;;;;;;;5074284;28;20208;-72
2022/01/29 14:07:46;;;;;;;59.87;3.60;;;;;;;;;;5078810;28;20452;-72
2022/01/29 14:10:17;;;;;;;59.43;3.80;;;;;;;;;;5081309;28;20447;-72
2022/01/29 14:12:48;;;;;;;60.10;3.80;;;;;;;;;;5072579;28;20502;-72
2022/01/29 14:15:16;;;;;;;60.00;3.73;;;;;;;;;;5072198;28;20950;-73
2022/01/29 14:17:44;;;;;;;60.80;3.95;;;;;;;;;;5072203;28;20527;-73
2022/01/29 14:20:13;;;;;;;59.03;3.58;;;;;;;;;;5074160;28;20202;-72
2022/01/29 14:22:42;;;;;;;59.97;4.10;;;;;;;;;;5072293;28;20228;-71
2022/01/29 14:25:10;;;;;;;63.67;3.93;;;;;;;;;;5073638;28;20209;-71
2022/01/29 14:27:37;;;;;;;60.47;3.90;;;;;;;;;;5073960;28;20448;-72
2022/01/29 14:30:05;;;;;;;60.25;3.78;;;;;;;;;;5073696;28;20538;-72
2022/01/29 14:32:32;;;;;;;61.03;3.80;;;;;;;;;;5072902;28;20228;-73
2022/01/29 14:35:01;;;;;;;59.27;3.70;;;;;;;;;;5071716;28;20471;-72
2022/01/29 14:37:28;;;;;;;60.40;4.07;;;;;;;;;;5071477;28;20479;-72
2022/01/29 14:39:56;;;;;;;58.77;3.30;;;;;;;;;;5071863;28;20447;-72
2022/01/29 14:42:27;;;;;;;61.90;3.70;;;;;;;;;;5071643;28;20478;-72